createdAt,value
2023-02-03T00:00:34.820Z,8.00
2023-02-03T00:03:03.119Z,8.10
2023-02-03T00:05:32.348Z,8.10
2023-02-03T00:08:00.440Z,8.10
2023-02-03T00:10:28.673Z,8.10
2023-02-03T00:13:00.615Z,8.10
2023-02-03T00:15:28.783Z,8.10
2023-02-03T00:17:56.891Z,8.10
2023-02-03T00:20:27.709Z,8.10
2023-02-03T00:22:56.022Z,8.10
2023-02-03T00:25:24.100Z,8.10
2023-02-03T00:27:52.299Z,8.10
2023-02-03T00:30:24.568Z,8.10
2023-02-03T00:32:55.614Z,8.20
2023-02-03T00:35:24.420Z,8.10
2023-02-03T00:37:56.632Z,8.10
2023-02-03T00:40:29.888Z,8.10
2023-02-03T00:43:00.532Z,8.10
2023-02-03T00:45:32.285Z,8.10
2023-02-03T00:48:00.421Z,8.10
2023-02-03T00:50:31.048Z,8.20
2023-02-03T00:52:59.227Z,8.20
2023-02-03T00:55:27.375Z,8.20
2023-02-03T00:57:57.500Z,8.20
2023-02-03T01:00:25.975Z,8.20
2023-02-03T01:02:57.965Z,8.30
2023-02-03T01:05:26.111Z,8.30
2023-02-03T01:07:56.499Z,8.30
2023-02-03T01:10:27.581Z,8.20
2023-02-03T01:12:55.929Z,8.20
2023-02-03T01:15:24.114Z,8.20
2023-02-03T01:17:54.578Z,8.20
2023-02-03T01:20:24.370Z,8.20
2023-02-03T01:22:52.666Z,8.20
2023-02-03T01:25:20.743Z,8.20
2023-02-03T01:27:48.873Z,8.20
2023-02-03T01:30:18.521Z,8.20
2023-02-03T01:32:48.069Z,8.30
2023-02-03T01:35:16.258Z,8.20
2023-02-03T01:37:45.790Z,8.30
2023-02-03T01:40:14.476Z,8.30
2023-02-03T01:42:42.620Z,8.20
2023-02-03T01:45:13.514Z,8.20
2023-02-03T01:47:49.124Z,8.20
2023-02-03T01:50:21.949Z,8.30
2023-02-03T01:52:58.014Z,8.20
2023-02-03T01:55:30.171Z,8.30
2023-02-03T01:58:02.844Z,8.30
2023-02-03T02:00:31.306Z,8.30
2023-02-03T02:03:05.702Z,8.30
2023-02-03T02:05:37.815Z,8.30
2023-02-03T02:08:08.347Z,8.30
2023-02-03T02:10:36.669Z,8.30
2023-02-03T02:13:06.304Z,8.30
2023-02-03T02:15:44.363Z,8.30
2023-02-03T02:18:28.218Z,8.30
2023-02-03T02:21:28.359Z,8.30
2023-02-03T02:24:26.665Z,8.30
2023-02-03T02:27:08.085Z,8.30
2023-02-03T02:30:07.539Z,8.20
2023-02-03T02:32:49.669Z,8.20
2023-02-03T02:35:28.801Z,8.20
2023-02-03T02:38:03.185Z,8.30
2023-02-03T02:40:36.614Z,8.20
2023-02-03T02:43:14.267Z,8.20
2023-02-03T02:45:49.373Z,8.20
2023-02-03T02:48:28.087Z,8.20
2023-02-03T02:50:59.440Z,8.20
2023-02-03T02:53:34.870Z,8.20
2023-02-03T02:56:11.054Z,8.20
2023-02-03T02:58:42.737Z,8.20
2023-02-03T03:01:13.348Z,8.30
2023-02-03T03:03:45.289Z,8.30
2023-02-03T03:06:18.531Z,8.20
2023-02-03T03:08:54.043Z,8.30
2023-02-03T03:11:26.766Z,8.30
2023-02-03T03:13:57.363Z,8.30
2023-02-03T03:16:28.154Z,8.20
2023-02-03T03:19:02.588Z,8.20
2023-02-03T03:21:38.184Z,8.30
2023-02-03T03:24:11.898Z,8.30
2023-02-03T03:26:45.014Z,8.30
2023-02-03T03:29:17.303Z,8.20
2023-02-03T03:31:47.538Z,8.30
2023-02-03T03:34:18.419Z,8.30
2023-02-03T03:36:49.426Z,8.30
2023-02-03T03:39:25.478Z,8.30
2023-02-03T03:42:02.121Z,8.30
2023-02-03T03:44:39.138Z,8.30
2023-02-03T03:47:17.549Z,8.30
2023-02-03T03:49:49.336Z,8.30
2023-02-03T03:52:22.874Z,8.20
2023-02-03T03:54:55.972Z,8.30
2023-02-03T03:57:27.122Z,8.30
2023-02-03T03:59:55.695Z,8.30
2023-02-03T04:02:24.730Z,8.20
2023-02-03T04:04:56.617Z,8.20
2023-02-03T04:07:24.722Z,8.30
2023-02-03T04:09:55.798Z,8.30
2023-02-03T04:12:26.269Z,8.30
2023-02-03T04:14:54.392Z,8.30
2023-02-03T04:17:22.482Z,8.30
2023-02-03T04:19:50.723Z,8.30
2023-02-03T04:22:22.505Z,8.30
2023-02-03T04:24:53.175Z,8.30
2023-02-03T04:27:21.251Z,8.30
2023-02-03T04:29:51.584Z,8.30
2023-02-03T04:32:19.794Z,8.30
2023-02-03T04:34:48.397Z,8.30
2023-02-03T04:37:16.579Z,8.30
2023-02-03T04:39:46.021Z,8.30
2023-02-03T04:42:16.162Z,8.30
2023-02-03T04:44:44.290Z,8.30
2023-02-03T04:47:14.647Z,8.30
2023-02-03T04:49:45.092Z,8.30
2023-02-03T04:52:14.134Z,8.30
2023-02-03T04:54:45.913Z,8.30
2023-02-03T04:57:14.048Z,8.40
2023-02-03T04:59:44.437Z,8.40
2023-02-03T05:02:19.707Z,8.40
2023-02-03T05:04:47.797Z,8.40
2023-02-03T05:07:15.943Z,8.40
2023-02-03T05:09:45.456Z,8.40
2023-02-03T05:12:13.609Z,8.40
2023-02-03T05:14:43.997Z,8.40
2023-02-03T05:17:14.621Z,8.40
2023-02-03T05:19:45.281Z,8.40
2023-02-03T05:22:13.933Z,8.40
2023-02-03T05:24:42.077Z,8.40
2023-02-03T05:27:11.711Z,8.40
2023-02-03T05:29:42.123Z,8.40
2023-02-03T05:32:12.423Z,8.40
2023-02-03T05:34:42.403Z,8.40
2023-02-03T05:37:12.957Z,8.40
2023-02-03T05:39:41.057Z,8.40
2023-02-03T05:42:08.187Z,8.40
2023-02-03T05:44:39.976Z,8.40
2023-02-03T05:47:10.418Z,8.40
2023-02-03T05:49:40.849Z,8.40
2023-02-03T05:52:11.123Z,8.40
2023-02-03T05:54:39.240Z,8.40
2023-02-03T05:57:09.659Z,8.40
2023-02-03T05:59:39.260Z,8.40
2023-02-03T06:02:07.395Z,8.40
2023-02-03T06:04:38.170Z,8.40
2023-02-03T06:07:06.279Z,8.40
2023-02-03T06:09:34.411Z,8.40
2023-02-03T06:12:02.483Z,8.40
2023-02-03T06:14:33.033Z,8.50
2023-02-03T06:17:02.548Z,8.50
2023-02-03T06:19:30.790Z,8.50
2023-02-03T06:21:58.979Z,8.40
2023-02-03T06:24:29.164Z,8.40
2023-02-03T06:26:57.314Z,8.50
2023-02-03T06:29:25.501Z,8.50
2023-02-03T06:31:53.805Z,8.40
2023-02-03T06:34:23.324Z,8.40
2023-02-03T06:36:51.407Z,8.50
2023-02-03T06:39:21.787Z,8.50
2023-02-03T06:41:51.974Z,8.50
2023-02-03T06:44:20.273Z,8.50
2023-02-03T06:46:48.371Z,8.50
2023-02-03T06:49:17.289Z,8.50
2023-02-03T06:51:47.417Z,8.50
2023-02-03T06:54:17.822Z,8.50
2023-02-03T06:56:46.264Z,8.50
2023-02-03T06:59:16.652Z,8.60
2023-02-03T07:01:44.984Z,8.50
2023-02-03T07:04:13.136Z,8.60
2023-02-03T07:06:41.275Z,8.50
2023-02-03T07:09:10.943Z,8.50
2023-02-03T07:11:41.757Z,8.60
2023-02-03T07:14:09.914Z,8.60
2023-02-03T07:16:37.993Z,8.60
2023-02-03T07:19:08.422Z,8.60
2023-02-03T07:21:38.584Z,8.60
2023-02-03T07:24:10.409Z,8.60
2023-02-03T07:26:39.194Z,8.60
2023-02-03T07:29:07.801Z,8.60
2023-02-03T07:31:36.709Z,8.60
2023-02-03T07:34:04.854Z,8.60
2023-02-03T07:36:33.022Z,8.60
2023-02-03T07:39:03.563Z,8.60
2023-02-03T07:41:35.100Z,8.60
2023-02-03T07:44:06.240Z,8.50
2023-02-03T07:46:34.372Z,8.50
2023-02-03T07:49:05.831Z,8.50
2023-02-03T07:51:33.988Z,8.50
2023-02-03T07:54:04.154Z,8.50
2023-02-03T07:56:32.791Z,8.50
2023-02-03T07:59:02.282Z,8.50
2023-02-03T08:01:34.184Z,8.50
2023-02-03T08:04:05.372Z,8.50
2023-02-03T08:06:35.945Z,8.50
2023-02-03T08:09:04.230Z,8.50
2023-02-03T08:11:33.169Z,8.60
2023-02-03T08:14:02.636Z,8.60
2023-02-03T08:16:33.221Z,8.60
2023-02-03T08:19:03.583Z,8.60
2023-02-03T08:21:32.030Z,8.60
2023-02-03T08:24:00.125Z,8.60
2023-02-03T08:26:30.285Z,8.70
2023-02-03T08:28:58.357Z,8.70
2023-02-03T08:31:30.169Z,8.70
2023-02-03T08:34:00.735Z,8.70
2023-02-03T08:36:28.828Z,8.70
2023-02-03T08:38:56.896Z,8.70
2023-02-03T08:41:27.324Z,8.80
2023-02-03T08:43:58.012Z,8.80
2023-02-03T08:46:26.294Z,8.70
2023-02-03T08:48:57.567Z,8.80
2023-02-03T08:51:25.658Z,8.70
2023-02-03T08:53:53.787Z,8.80
2023-02-03T08:56:22.173Z,8.80
2023-02-03T08:58:50.296Z,8.80
2023-02-03T09:01:20.965Z,8.80
2023-02-03T09:03:51.591Z,8.80
2023-02-03T09:06:24.114Z,8.80
2023-02-03T09:08:53.373Z,8.80
2023-02-03T09:11:21.510Z,8.80
2023-02-03T09:13:50.171Z,8.80
2023-02-03T09:16:22.854Z,8.80
2023-02-03T09:18:51.185Z,8.90
2023-02-03T09:21:34.658Z,8.90
2023-02-03T09:24:09.172Z,8.90
2023-02-03T09:26:37.310Z,8.90
2023-02-03T09:29:05.557Z,9.00
2023-02-03T09:31:33.689Z,9.00
2023-02-03T09:34:04.197Z,9.00
2023-02-03T09:36:33.691Z,9.10
2023-02-03T09:39:01.814Z,9.10
2023-02-03T09:41:50.183Z,9.10
2023-02-03T09:44:23.930Z,9.10
2023-02-03T09:46:56.018Z,9.10
2023-02-03T09:49:28.021Z,9.10
2023-02-03T09:52:02.569Z,9.10
2023-02-03T09:54:43.515Z,9.10
2023-02-03T09:57:21.550Z,9.10
2023-02-03T09:59:50.403Z,9.20
2023-02-03T10:02:45.027Z,9.20
2023-02-03T10:05:23.537Z,9.20
2023-02-03T10:08:03.450Z,9.20
2023-02-03T10:10:40.100Z,9.20
2023-02-03T10:13:27.494Z,9.30
2023-02-03T10:16:13.744Z,9.30
2023-02-03T10:18:46.740Z,9.30
2023-02-03T10:21:20.707Z,9.30
2023-02-03T10:23:51.599Z,9.30
2023-02-03T10:26:22.741Z,9.30
2023-02-03T10:28:56.095Z,9.30
2023-02-03T10:31:28.833Z,9.30
2023-02-03T10:34:02.667Z,9.40
2023-02-03T10:36:43.142Z,9.40
2023-02-03T10:39:22.787Z,9.40
2023-02-03T10:41:50.977Z,9.40
2023-02-03T10:44:22.535Z,9.40
2023-02-03T10:46:50.634Z,9.40
2023-02-03T10:49:19.557Z,9.50
2023-02-03T10:51:51.496Z,9.50
2023-02-03T10:54:32.469Z,9.50
2023-02-03T10:57:06.239Z,9.50
2023-02-03T10:59:37.097Z,9.50
2023-02-03T11:02:22.047Z,9.60
2023-02-03T11:05:02.364Z,9.50
2023-02-03T11:07:32.888Z,9.60
2023-02-03T11:10:02.399Z,9.60
2023-02-03T11:12:31.208Z,9.60
2023-02-03T11:15:07.315Z,9.50
2023-02-03T11:17:37.658Z,9.50
2023-02-03T11:20:16.972Z,9.40
2023-02-03T11:22:49.909Z,9.40
2023-02-03T11:25:23.040Z,9.30
2023-02-03T11:27:51.249Z,9.30
2023-02-03T11:30:23.913Z,9.20
2023-02-03T11:32:52.692Z,9.20
2023-02-03T11:35:24.197Z,9.10
2023-02-03T11:37:56.322Z,9.10
2023-02-03T11:40:30.566Z,9.10
2023-02-03T11:43:04.708Z,9.10
2023-02-03T11:45:41.964Z,9.10
2023-02-03T11:48:27.097Z,9.10
2023-02-03T11:51:01.879Z,9.00
2023-02-03T11:53:56.171Z,9.00
2023-02-03T11:56:36.151Z,9.00
2023-02-03T11:59:29.092Z,9.00
2023-02-03T12:02:18.969Z,9.00
2023-02-03T12:05:21.834Z,9.00
2023-02-03T12:08:02.840Z,8.90
2023-02-03T12:10:42.159Z,8.90
2023-02-03T12:13:27.259Z,8.90
2023-02-03T12:16:12.502Z,8.90
2023-02-03T12:18:53.770Z,8.90
2023-02-03T12:21:39.801Z,8.90
2023-02-03T12:24:35.790Z,8.90
2023-02-03T12:27:19.574Z,8.90
2023-02-03T12:29:53.751Z,9.00
2023-02-03T12:32:30.043Z,9.00
2023-02-03T12:35:05.209Z,9.00
2023-02-03T12:37:43.178Z,9.00
2023-02-03T12:40:18.098Z,9.00
2023-02-03T12:42:53.100Z,9.00
2023-02-03T12:45:26.763Z,9.00
2023-02-03T12:47:58.836Z,9.00
2023-02-03T12:50:35.194Z,9.10
2023-02-03T12:53:06.976Z,9.10
2023-02-03T12:55:39.115Z,9.10
2023-02-03T12:58:12.080Z,9.10
2023-02-03T13:00:47.119Z,9.10
2023-02-03T13:03:24.268Z,9.10
2023-02-03T13:05:58.200Z,9.10
2023-02-03T13:08:32.651Z,9.10
2023-02-03T13:11:15.213Z,9.10
2023-02-03T13:13:49.017Z,9.10
2023-02-03T13:16:22.197Z,9.10
2023-02-03T13:18:55.436Z,9.10
2023-02-03T13:21:24.177Z,9.10
2023-02-03T13:23:52.580Z,9.10
2023-02-03T13:26:42.792Z,9.10
2023-02-03T13:29:39.621Z,9.00
2023-02-03T13:32:22.408Z,9.00
2023-02-03T13:35:33.884Z,9.10
2023-02-03T13:38:21.257Z,9.10
2023-02-03T13:41:05.384Z,9.00
2023-02-03T13:43:38.945Z,9.10
2023-02-03T13:46:18.714Z,9.10
2023-02-03T13:48:48.415Z,9.00
2023-02-03T13:51:22.991Z,9.00
2023-02-03T13:53:53.245Z,9.00
2023-02-03T13:56:25.525Z,9.00
2023-02-03T13:59:05.301Z,9.00
2023-02-03T14:01:38.634Z,9.00
2023-02-03T14:04:49.509Z,9.00
2023-02-03T14:07:31.501Z,8.90
2023-02-03T14:10:23.380Z,8.90
2023-02-03T14:12:59.797Z,8.90
2023-02-03T14:15:34.341Z,8.90
2023-02-03T14:18:28.786Z,8.90
2023-02-03T14:21:13.504Z,8.90
2023-02-03T14:23:46.537Z,8.80
2023-02-03T14:26:25.351Z,8.80
2023-02-03T14:28:55.886Z,8.90
2023-02-03T14:31:25.477Z,8.90
2023-02-03T14:34:07.989Z,8.90
2023-02-03T14:36:47.930Z,8.80
2023-02-03T14:39:42.544Z,8.80
2023-02-03T14:42:23.342Z,8.80
2023-02-03T14:45:05.884Z,8.80
2023-02-03T14:47:50.942Z,8.80
2023-02-03T14:50:30.035Z,8.80
2023-02-03T14:53:20.149Z,8.80
2023-02-03T14:55:58.693Z,8.80
2023-02-03T14:58:34.191Z,8.80
2023-02-03T15:01:05.215Z,8.70
2023-02-03T15:03:35.166Z,8.70
2023-02-03T15:06:06.773Z,8.70
2023-02-03T15:08:43.977Z,8.70
2023-02-03T15:11:33.470Z,8.70
2023-02-03T15:14:22.563Z,8.60
2023-02-03T15:16:58.421Z,8.60
2023-02-03T15:19:30.978Z,8.60
2023-02-03T15:21:59.216Z,8.60
2023-02-03T15:24:38.178Z,8.60
2023-02-03T15:27:22.779Z,8.60
2023-02-03T15:29:53.859Z,8.60
2023-02-03T15:32:28.954Z,8.60
2023-02-03T15:34:59.612Z,8.50
2023-02-03T15:37:32.735Z,8.50
2023-02-03T15:40:09.707Z,8.50
2023-02-03T15:42:46.584Z,8.50
2023-02-03T15:45:27.783Z,8.40
2023-02-03T15:48:00.610Z,8.40
2023-02-03T15:50:34.312Z,8.40
2023-02-03T15:53:09.261Z,8.40
2023-02-03T15:55:43.049Z,8.40
2023-02-03T15:58:18.405Z,8.30
2023-02-03T16:00:50.228Z,8.30
2023-02-03T16:03:21.571Z,8.30
2023-02-03T16:05:52.413Z,8.20
2023-02-03T16:08:38.212Z,8.20
2023-02-03T16:11:27.172Z,8.20
2023-02-03T16:13:56.699Z,8.20
2023-02-03T16:16:27.797Z,8.20
2023-02-03T16:19:01.427Z,8.20
2023-02-03T16:21:35.925Z,8.10
2023-02-03T16:24:07.207Z,8.10
2023-02-03T16:26:39.002Z,8.10
2023-02-03T16:29:31.550Z,8.10
2023-02-03T16:32:17.901Z,8.00
2023-02-03T16:35:06.140Z,8.00
2023-02-03T16:37:53.555Z,8.00
2023-02-03T16:40:42.955Z,7.90
2023-02-03T16:43:32.419Z,7.90
2023-02-03T16:46:20.773Z,7.90
2023-02-03T16:49:06.346Z,7.90
2023-02-03T16:51:41.466Z,7.80
2023-02-03T16:54:14.070Z,7.80
2023-02-03T16:56:44.626Z,7.70
2023-02-03T16:59:17.231Z,7.70
2023-02-03T17:01:45.447Z,7.70
2023-02-03T17:04:13.569Z,7.60
2023-02-03T17:06:44.269Z,7.60
2023-02-03T17:09:12.378Z,7.60
2023-02-03T17:11:40.758Z,7.50
2023-02-03T17:14:11.228Z,7.50
2023-02-03T17:16:40.881Z,7.50
2023-02-03T17:19:12.323Z,7.40
2023-02-03T17:21:42.790Z,7.40
2023-02-03T17:24:12.285Z,7.40
2023-02-03T17:26:42.495Z,7.40
2023-02-03T17:29:11.432Z,7.30
2023-02-03T17:31:40.968Z,7.40
2023-02-03T17:34:09.140Z,7.30
2023-02-03T17:36:37.402Z,7.30
2023-02-03T17:55:34.003Z,7.30
2023-02-03T17:58:03.956Z,7.30
2023-02-03T18:00:32.429Z,7.40
2023-02-03T18:03:02.206Z,7.40
2023-02-03T18:05:30.552Z,7.40
2023-02-03T18:08:06.019Z,7.30
2023-02-03T18:10:40.454Z,7.30
2023-02-03T18:13:11.005Z,7.40
2023-02-03T18:15:41.722Z,7.40
2023-02-03T18:18:13.877Z,7.40
2023-02-03T18:20:41.992Z,7.40
2023-02-03T18:23:10.111Z,7.40
2023-02-03T18:25:40.513Z,7.40
2023-02-03T18:28:11.216Z,7.40
2023-02-03T18:30:39.513Z,7.40
2023-02-03T18:33:07.783Z,7.40
2023-02-03T18:35:37.281Z,7.30
2023-02-03T18:38:05.465Z,7.40
2023-02-03T18:40:37.363Z,7.40
2023-02-03T18:43:05.906Z,7.30
2023-02-03T18:45:36.179Z,7.30
2023-02-03T18:48:07.066Z,7.30
2023-02-03T18:50:41.867Z,7.30
2023-02-03T18:53:11.092Z,7.30
2023-02-03T18:55:42.311Z,7.30
2023-02-03T18:58:14.112Z,7.30
2023-02-03T19:00:42.378Z,7.30
2023-02-03T19:03:12.776Z,7.30
2023-02-03T19:05:42.347Z,7.30
2023-02-03T19:08:10.464Z,7.30
2023-02-03T19:10:38.615Z,7.30
2023-02-03T19:13:06.787Z,7.30
2023-02-03T19:15:34.969Z,7.20
2023-02-03T19:18:03.103Z,7.30
2023-02-03T19:20:31.460Z,7.20
2023-02-03T19:23:08.400Z,7.30
2023-02-03T19:25:36.872Z,7.20
2023-02-03T19:28:14.335Z,7.20
2023-02-03T19:30:45.880Z,7.20
2023-02-03T19:33:16.284Z,7.20
2023-02-03T19:35:44.432Z,7.20
2023-02-03T19:38:13.926Z,7.20
2023-02-03T19:40:44.210Z,7.20
2023-02-03T19:43:12.333Z,7.20
2023-02-03T19:45:40.520Z,7.20
2023-02-03T19:48:11.238Z,7.20
2023-02-03T19:50:40.828Z,7.20
2023-02-03T19:53:09.515Z,7.20
2023-02-03T19:55:42.692Z,7.20
2023-02-03T19:58:13.715Z,7.20
2023-02-03T20:00:42.112Z,7.10
2023-02-03T20:03:10.382Z,7.10
2023-02-03T20:05:41.236Z,7.10
2023-02-03T20:08:14.416Z,7.10
2023-02-03T20:10:46.979Z,7.00
2023-02-03T20:13:16.104Z,7.10
2023-02-03T20:15:47.639Z,7.10
2023-02-03T20:18:17.973Z,7.00
2023-02-03T20:20:50.407Z,7.00
2023-02-03T20:23:21.145Z,7.00
2023-02-03T20:25:52.856Z,7.00
2023-02-03T20:28:21.308Z,7.00
2023-02-03T20:30:52.042Z,7.00
2023-02-03T20:33:20.650Z,6.90
2023-02-03T20:35:50.881Z,6.90
2023-02-03T20:38:21.609Z,7.00
2023-02-03T20:40:51.257Z,6.90
2023-02-03T20:43:21.568Z,7.00
2023-02-03T20:45:51.593Z,6.90
2023-02-03T20:48:22.274Z,6.90
2023-02-03T20:50:50.680Z,6.90
2023-02-03T20:53:20.627Z,6.90
2023-02-03T20:55:56.680Z,6.90
2023-02-03T20:58:26.574Z,6.90
2023-02-03T21:00:57.340Z,6.90
2023-02-03T21:03:43.294Z,6.90
2023-02-03T21:06:15.517Z,6.90
2023-02-03T21:08:44.280Z,6.90
2023-02-03T21:11:16.902Z,6.90
2023-02-03T21:13:46.445Z,6.90
2023-02-03T21:16:18.916Z,6.90
2023-02-03T21:18:49.764Z,6.80
2023-02-03T21:21:24.731Z,6.80
2023-02-03T21:23:53.622Z,6.80
2023-02-03T21:26:27.591Z,6.80
2023-02-03T21:28:59.806Z,6.80
2023-02-03T21:31:32.162Z,6.80
2023-02-03T21:34:04.867Z,6.80
2023-02-03T21:36:36.561Z,6.80
2023-02-03T21:39:21.154Z,6.80
2023-02-03T21:41:53.268Z,6.80
2023-02-03T21:44:29.085Z,6.80
2023-02-03T21:46:57.339Z,6.70
2023-02-03T21:49:25.569Z,6.70
2023-02-03T21:51:55.998Z,6.70
2023-02-03T21:54:33.556Z,6.70
2023-02-03T21:57:03.026Z,6.60
2023-02-03T21:59:42.221Z,6.60
2023-02-03T22:02:44.054Z,6.60
2023-02-03T22:05:16.421Z,6.60
2023-02-03T22:07:44.582Z,6.50
2023-02-03T22:10:15.004Z,6.50
2023-02-03T22:12:44.595Z,6.50
2023-02-03T22:15:14.968Z,6.50
2023-02-03T22:17:43.063Z,6.40
2023-02-03T22:20:12.505Z,6.40
2023-02-03T22:22:40.640Z,6.40
2023-02-03T22:25:11.322Z,6.40
2023-02-03T22:27:39.503Z,6.40
2023-02-03T22:30:11.666Z,6.40
2023-02-03T22:32:42.921Z,6.40
2023-02-03T22:35:11.193Z,6.30
2023-02-03T22:37:39.347Z,6.30
2023-02-03T22:40:09.651Z,6.30
2023-02-03T22:42:37.791Z,6.30
2023-02-03T22:45:10.353Z,6.30
2023-02-03T22:47:38.535Z,6.30
2023-02-03T22:50:08.144Z,6.30
2023-02-03T22:52:36.337Z,6.30
2023-02-03T22:55:04.976Z,6.40
2023-02-03T22:57:38.065Z,6.40
2023-02-03T23:00:13.372Z,6.30
2023-02-03T23:02:42.064Z,6.40
2023-02-03T23:05:11.406Z,6.30
2023-02-03T23:07:39.968Z,6.30
2023-02-03T23:10:11.463Z,6.30
2023-02-03T23:12:42.170Z,6.40
2023-02-03T23:15:12.461Z,6.30
2023-02-03T23:17:40.792Z,6.30
2023-02-03T23:20:11.008Z,6.30
2023-02-03T23:22:39.273Z,6.40
2023-02-03T23:25:10.483Z,6.40
2023-02-03T23:27:38.919Z,6.40
2023-02-03T23:30:08.428Z,6.40
2023-02-03T23:32:40.354Z,6.40
2023-02-03T23:35:26.571Z,6.40
2023-02-03T23:37:54.924Z,6.30
2023-02-03T23:40:23.061Z,6.30
2023-02-03T23:42:51.446Z,6.30
2023-02-03T23:45:19.951Z,6.30
2023-02-03T23:47:49.489Z,6.30
2023-02-03T23:50:20.080Z,6.30
2023-02-03T23:52:51.262Z,6.20
2023-02-03T23:55:21.797Z,6.20
2023-02-03T23:57:49.946Z,6.20
